createdAt,value
2019-06-08T00:01:23.916Z,4.37
2019-06-08T00:03:52.842Z,5.50
2019-06-08T00:06:20.809Z,3.90
2019-06-08T00:08:48.634Z,4.30
2019-06-08T00:11:16.860Z,3.23
2019-06-08T00:13:44.724Z,3.23
2019-06-08T00:16:13.225Z,3.00
2019-06-08T00:18:40.971Z,2.70
2019-06-08T00:21:08.714Z,2.60
2019-06-08T00:23:36.462Z,3.60
2019-06-08T00:26:04.249Z,3.00
2019-06-08T00:28:32.049Z,3.10
2019-06-08T00:30:59.777Z,3.23
2019-06-08T00:33:27.504Z,2.93
2019-06-08T00:35:55.234Z,3.30
2019-06-08T00:38:23.060Z,3.53
2019-06-08T00:40:50.902Z,3.30
2019-06-08T00:43:19.158Z,2.93
2019-06-08T00:45:46.868Z,3.23
2019-06-08T00:48:14.566Z,3.33
2019-06-08T00:50:42.333Z,2.87
2019-06-08T00:53:10.054Z,3.00
2019-06-08T00:55:37.791Z,2.80
2019-06-08T00:58:05.600Z,3.03
2019-06-08T01:00:33.368Z,3.00
2019-06-08T01:03:01.103Z,3.10
2019-06-08T01:05:30.182Z,3.43
2019-06-08T01:07:57.937Z,3.40
2019-06-08T01:10:25.714Z,2.83
2019-06-08T01:12:53.415Z,3.40
2019-06-08T01:15:27.675Z,3.10
2019-06-08T01:18:02.002Z,4.33
2019-06-08T01:20:21.670Z,3.30
2019-06-08T01:22:49.551Z,3.60
2019-06-08T01:25:17.281Z,3.10
2019-06-08T01:27:45.317Z,3.37
2019-06-08T01:30:13.110Z,3.10
2019-06-08T01:32:40.835Z,3.47
2019-06-08T01:35:08.541Z,4.17
2019-06-08T01:37:36.272Z,3.23
2019-06-08T01:40:04.673Z,3.97
2019-06-08T01:42:32.409Z,3.40
2019-06-08T01:45:00.026Z,3.47
2019-06-08T01:47:28.287Z,3.00
2019-06-08T01:49:56.057Z,3.93
2019-06-08T01:52:24.630Z,3.40
2019-06-08T01:54:52.386Z,3.33
2019-06-08T01:57:20.150Z,3.50
2019-06-08T01:59:47.876Z,3.30
2019-06-08T02:02:15.603Z,3.60
2019-06-08T02:04:43.321Z,10.40
2019-06-08T02:07:11.053Z,2.87
2019-06-08T02:09:38.831Z,3.17
2019-06-08T02:12:06.601Z,3.57
2019-06-08T02:14:35.440Z,3.30
2019-06-08T02:17:03.197Z,3.07
2019-06-08T02:19:30.992Z,3.33
2019-06-08T02:21:58.694Z,3.20
2019-06-08T02:24:27.220Z,3.43
2019-06-08T02:26:54.968Z,3.30
2019-06-08T02:29:22.700Z,2.53
2019-06-08T02:31:50.403Z,2.73
2019-06-08T02:34:18.149Z,3.27
2019-06-08T02:36:45.841Z,2.93
2019-06-08T02:39:13.605Z,3.50
2019-06-08T02:41:41.339Z,3.50
2019-06-08T02:44:09.034Z,3.57
2019-06-08T02:46:38.239Z,3.87
2019-06-08T02:49:07.265Z,2.87
2019-06-08T02:51:36.455Z,3.50
2019-06-08T02:54:05.552Z,3.33
2019-06-08T02:56:34.150Z,3.27
2019-06-08T02:59:02.040Z,3.47
2019-06-08T03:01:31.297Z,4.00
2019-06-08T03:04:00.533Z,3.63
2019-06-08T03:06:32.226Z,3.80
2019-06-08T03:09:00.591Z,3.53
2019-06-08T03:11:28.328Z,3.23
2019-06-08T03:13:57.250Z,3.47
2019-06-08T03:16:24.961Z,3.43
2019-06-08T03:18:52.770Z,3.37
2019-06-08T03:21:20.531Z,3.13
2019-06-08T03:23:48.209Z,3.37
2019-06-08T03:26:15.971Z,3.00
2019-06-08T03:28:44.325Z,3.20
2019-06-08T03:31:12.227Z,3.10
2019-06-08T03:33:48.963Z,3.83
2019-06-08T03:36:09.451Z,3.17
2019-06-08T03:38:37.680Z,4.03
2019-06-08T03:41:05.536Z,3.70
2019-06-08T03:43:35.209Z,2.97
2019-06-08T03:46:02.767Z,3.80
2019-06-08T03:48:30.502Z,3.50
2019-06-08T03:50:58.265Z,4.07
2019-06-08T03:53:25.950Z,3.30
2019-06-08T03:55:53.678Z,3.10
2019-06-08T03:58:21.374Z,3.33
2019-06-08T04:00:49.293Z,2.97
2019-06-08T04:03:17.033Z,3.17
2019-06-08T04:05:46.438Z,3.13
2019-06-08T04:08:14.274Z,3.57
2019-06-08T04:10:42.688Z,3.13
2019-06-08T04:13:11.982Z,3.40
2019-06-08T04:15:40.324Z,4.00
2019-06-08T04:18:09.258Z,3.60
2019-06-08T04:20:37.971Z,3.30
2019-06-08T04:23:06.262Z,3.77
2019-06-08T04:25:34.150Z,3.10
2019-06-08T04:28:02.033Z,3.73
2019-06-08T04:30:29.718Z,2.93
2019-06-08T04:32:57.453Z,3.60
2019-06-08T04:35:25.186Z,3.50
2019-06-08T04:37:52.924Z,3.87
2019-06-08T04:40:20.669Z,3.47
2019-06-08T04:42:50.784Z,3.77
2019-06-08T04:45:17.900Z,6.37
2019-06-08T04:47:47.618Z,6.17
2019-06-08T04:50:22.778Z,7.07
2019-06-08T04:52:45.074Z,8.97
2019-06-08T04:55:13.251Z,8.97
2019-06-08T04:57:41.862Z,6.50
2019-06-08T05:00:12.971Z,4.43
2019-06-08T05:02:42.151Z,3.90
2019-06-08T05:05:09.573Z,3.80
2019-06-08T05:07:38.992Z,3.73
2019-06-08T05:10:08.926Z,5.43
2019-06-08T05:12:36.795Z,7.67
2019-06-08T05:15:04.913Z,7.73
2019-06-08T05:17:32.651Z,8.70
2019-06-08T05:20:00.417Z,8.17
2019-06-08T05:22:28.154Z,6.77
2019-06-08T05:24:55.886Z,5.50
2019-06-08T05:27:23.690Z,7.70
2019-06-08T05:29:51.404Z,7.67
2019-06-08T05:32:19.154Z,8.47
2019-06-08T05:34:47.572Z,6.30
2019-06-08T05:37:15.289Z,6.00
2019-06-08T05:39:43.581Z,5.90
2019-06-08T05:42:11.450Z,5.35
2019-06-08T05:44:39.588Z,7.03
2019-06-08T05:47:07.681Z,6.05
2019-06-08T05:49:35.381Z,5.97
2019-06-08T05:52:03.135Z,5.87
2019-06-08T05:54:30.841Z,6.30
2019-06-08T05:56:58.573Z,5.12
2019-06-08T05:59:26.312Z,4.12
2019-06-08T06:01:54.010Z,4.42
2019-06-08T06:04:21.758Z,4.92
2019-06-08T06:06:50.821Z,3.50
2019-06-08T06:09:18.845Z,3.70
2019-06-08T06:11:46.891Z,3.22
2019-06-08T06:14:14.585Z,3.53
2019-06-08T06:16:43.105Z,2.35
2019-06-08T06:19:11.035Z,2.30
2019-06-08T06:21:41.498Z,2.47
2019-06-08T06:24:09.361Z,2.70
2019-06-08T06:26:37.108Z,2.85
2019-06-08T06:29:04.845Z,2.58
2019-06-08T06:31:32.574Z,2.33
2019-06-08T06:34:00.312Z,2.60
2019-06-08T06:36:28.020Z,2.58
2019-06-08T06:38:55.753Z,2.05
2019-06-08T06:41:23.453Z,2.75
2019-06-08T06:43:52.210Z,2.42
2019-06-08T06:46:20.012Z,2.25
2019-06-08T06:48:48.283Z,2.85
2019-06-08T06:51:25.613Z,2.25
2019-06-08T06:53:46.625Z,3.10
2019-06-08T06:56:14.330Z,2.52
2019-06-08T06:58:43.064Z,2.98
2019-06-08T07:01:10.837Z,2.25
2019-06-08T07:03:38.582Z,2.83
2019-06-08T07:06:06.292Z,3.10
2019-06-08T07:08:34.030Z,2.75
2019-06-08T07:11:01.743Z,2.80
2019-06-08T07:13:29.470Z,2.17
2019-06-08T07:15:58.196Z,2.25
2019-06-08T07:18:26.110Z,2.47
2019-06-08T07:20:54.388Z,2.00
2019-06-08T07:23:22.125Z,2.77
2019-06-08T07:25:50.437Z,2.58
2019-06-08T07:28:18.174Z,2.58
2019-06-08T07:30:47.295Z,2.20
2019-06-08T07:33:15.513Z,2.58
2019-06-08T07:35:43.239Z,2.37
2019-06-08T07:38:11.080Z,2.45
2019-06-08T07:40:38.926Z,2.40
2019-06-08T07:43:06.776Z,2.62
2019-06-08T07:45:34.842Z,2.25
2019-06-08T07:48:02.823Z,3.52
2019-06-08T07:50:30.669Z,2.50
2019-06-08T07:52:58.853Z,2.35
2019-06-08T07:55:26.863Z,3.37
2019-06-08T07:57:54.574Z,2.27
2019-06-08T08:00:22.366Z,1.95
2019-06-08T08:02:50.186Z,2.52
2019-06-08T08:05:18.089Z,3.08
2019-06-08T08:07:46.015Z,3.05
2019-06-08T08:10:13.855Z,2.00
2019-06-08T08:12:41.632Z,2.62
2019-06-08T08:15:09.722Z,2.62
2019-06-08T08:17:37.421Z,2.08
2019-06-08T08:20:05.283Z,2.27
2019-06-08T08:22:32.994Z,2.37
2019-06-08T08:25:04.346Z,2.67
2019-06-08T08:27:30.333Z,2.90
2019-06-08T08:30:00.554Z,2.47
2019-06-08T08:32:28.259Z,2.40
2019-06-08T08:34:58.744Z,2.63
2019-06-08T08:37:27.991Z,2.60
2019-06-08T08:39:55.596Z,2.60
2019-06-08T08:42:23.330Z,2.50
2019-06-08T08:44:51.577Z,3.10
2019-06-08T08:47:20.306Z,2.90
2019-06-08T08:49:48.070Z,2.90
2019-06-08T08:52:17.447Z,3.33
2019-06-08T08:54:47.391Z,2.63
2019-06-08T08:57:15.188Z,2.83
2019-06-08T08:59:43.101Z,2.37
2019-06-08T09:02:11.504Z,3.33
2019-06-08T09:04:39.581Z,3.07
2019-06-08T09:07:10.292Z,2.75
2019-06-08T09:09:38.737Z,2.77
2019-06-08T09:12:08.367Z,2.50
2019-06-08T09:14:41.158Z,2.87
2019-06-08T09:17:08.329Z,4.10
2019-06-08T09:19:37.993Z,8.93
2019-06-08T09:22:04.952Z,3.93
2019-06-08T09:24:32.687Z,3.10
2019-06-08T09:27:02.884Z,2.97
2019-06-08T09:29:30.129Z,2.83
2019-06-08T09:31:59.080Z,3.27
2019-06-08T09:34:28.278Z,3.00
2019-06-08T09:36:59.731Z,2.67
2019-06-08T09:39:25.708Z,2.37
2019-06-08T09:41:54.189Z,2.60
2019-06-08T09:44:23.062Z,3.00
2019-06-08T09:46:50.789Z,3.13
2019-06-08T09:49:18.972Z,1.97
2019-06-08T09:51:48.624Z,2.23
2019-06-08T09:54:18.241Z,2.90
2019-06-08T09:56:47.775Z,1.90
2019-06-08T09:59:15.694Z,2.20
2019-06-08T10:01:44.838Z,1.93
2019-06-08T10:04:13.306Z,2.27
2019-06-08T10:06:41.126Z,2.13
2019-06-08T10:09:09.147Z,3.10
2019-06-08T10:11:37.996Z,5.00
2019-06-08T10:14:11.642Z,2.70
2019-06-08T10:16:38.014Z,1.93
2019-06-08T10:19:07.300Z,2.50
2019-06-08T10:21:34.482Z,2.37
2019-06-08T10:24:04.708Z,2.50
2019-06-08T10:26:31.715Z,3.77
2019-06-08T10:29:02.132Z,2.83
2019-06-08T10:31:38.790Z,2.33
2019-06-08T10:34:01.871Z,2.90
2019-06-08T10:36:28.452Z,1.97
2019-06-08T10:38:59.381Z,3.60
2019-06-08T10:41:27.813Z,3.23
2019-06-08T10:43:55.370Z,2.35
2019-06-08T10:46:23.530Z,2.27
2019-06-08T10:48:51.265Z,1.93
2019-06-08T10:51:18.979Z,1.80
2019-06-08T10:53:52.597Z,1.70
2019-06-08T10:56:18.657Z,1.87
2019-06-08T10:58:49.498Z,2.50
2019-06-08T11:01:15.250Z,1.97
2019-06-08T11:03:43.005Z,2.10
2019-06-08T11:06:13.105Z,2.40
2019-06-08T11:08:40.833Z,1.90
2019-06-08T11:11:09.771Z,2.53
2019-06-08T11:13:38.106Z,2.93
2019-06-08T11:16:06.662Z,1.80
2019-06-08T11:18:35.354Z,1.80
2019-06-08T11:21:03.669Z,1.97
2019-06-08T11:23:32.711Z,1.90
2019-06-08T11:26:04.664Z,2.00
2019-06-08T11:28:29.993Z,1.67
2019-06-08T11:30:57.784Z,1.67
2019-06-08T11:33:25.674Z,2.27
2019-06-08T11:35:53.401Z,4.83
2019-06-08T11:38:21.113Z,2.00
2019-06-08T11:40:48.856Z,1.77
2019-06-08T11:43:18.350Z,1.50
2019-06-08T11:45:48.067Z,1.83
2019-06-08T11:48:18.055Z,1.80
2019-06-08T11:50:45.230Z,1.57
2019-06-08T11:53:14.831Z,1.73
2019-06-08T11:55:42.906Z,1.90
2019-06-08T11:58:13.680Z,2.07
2019-06-08T12:01:13.284Z,1.50
2019-06-08T12:03:39.350Z,1.50
2019-06-08T12:06:09.449Z,1.60
2019-06-08T12:08:38.080Z,1.80
2019-06-08T12:11:10.648Z,1.83
2019-06-08T12:13:58.481Z,1.70
2019-06-08T12:16:28.115Z,1.70
2019-06-08T12:18:58.413Z,1.80
2019-06-08T12:21:27.257Z,2.00
2019-06-08T12:23:54.815Z,2.10
2019-06-08T12:26:22.703Z,1.80
2019-06-08T12:28:50.436Z,1.50
2019-06-08T12:31:22.420Z,1.93
2019-06-08T12:33:48.784Z,1.80
2019-06-08T12:36:17.859Z,1.70
2019-06-08T12:38:48.554Z,2.03
2019-06-08T12:41:15.994Z,1.40
2019-06-08T12:43:43.834Z,1.63
2019-06-08T12:46:13.036Z,1.30
2019-06-08T12:48:41.199Z,1.80
2019-06-08T12:51:11.378Z,1.43
2019-06-08T12:53:38.556Z,1.27
2019-06-08T12:56:08.778Z,1.73
2019-06-08T12:58:35.831Z,1.50
2019-06-08T13:01:03.792Z,1.50
2019-06-08T13:03:31.621Z,1.33
2019-06-08T13:05:59.387Z,1.40
2019-06-08T13:08:28.647Z,1.30
2019-06-08T13:10:57.461Z,1.33
2019-06-08T13:13:28.100Z,1.77
2019-06-08T13:15:57.902Z,1.47
2019-06-08T13:18:25.233Z,1.73
2019-06-08T13:20:52.946Z,1.57
2019-06-08T13:23:21.368Z,1.73
2019-06-08T13:25:49.157Z,1.40
2019-06-08T13:28:23.621Z,1.53
2019-06-08T13:30:47.850Z,1.50
2019-06-08T13:33:16.292Z,1.63
2019-06-08T13:35:44.074Z,1.80
2019-06-08T13:38:12.652Z,1.63
2019-06-08T13:40:40.498Z,1.30
2019-06-08T13:43:08.337Z,1.50
2019-06-08T13:45:35.967Z,1.60
2019-06-08T13:48:03.757Z,1.40
2019-06-08T13:50:31.464Z,1.67
2019-06-08T13:52:59.178Z,1.37
2019-06-08T13:55:47.732Z,1.70
2019-06-08T13:57:58.099Z,1.30
2019-06-08T14:00:38.114Z,1.30
2019-06-08T14:03:08.254Z,1.80
2019-06-08T14:05:38.528Z,1.93
2019-06-08T14:08:05.390Z,1.47
2019-06-08T14:10:38.522Z,2.45
2019-06-08T14:13:06.763Z,1.60
2019-06-08T14:15:34.553Z,1.83
2019-06-08T14:18:02.493Z,1.67
2019-06-08T14:20:34.280Z,1.60
2019-06-08T14:23:00.117Z,1.60
2019-06-08T14:25:28.887Z,1.60
2019-06-08T14:27:57.657Z,1.70
2019-06-08T14:30:28.052Z,1.37
2019-06-08T14:32:54.960Z,1.60
2019-06-08T14:35:24.196Z,1.73
2019-06-08T14:37:52.346Z,1.87
2019-06-08T14:40:21.328Z,1.73
2019-06-08T14:42:49.070Z,1.83
2019-06-08T14:45:18.192Z,1.47
2019-06-08T14:47:47.554Z,1.43
2019-06-08T14:50:15.423Z,1.63
2019-06-08T14:52:43.193Z,1.53
2019-06-08T14:55:11.177Z,1.37
2019-06-08T14:57:40.300Z,1.43
2019-06-08T15:00:11.928Z,1.20
2019-06-08T15:02:38.101Z,1.53
2019-06-08T15:05:07.869Z,1.90
2019-06-08T15:07:35.736Z,1.53
2019-06-08T15:10:04.053Z,1.33
2019-06-08T15:12:31.850Z,1.40
2019-06-08T15:14:59.654Z,1.40
2019-06-08T15:17:28.956Z,1.60
2019-06-08T15:19:58.553Z,1.30
2019-06-08T15:22:28.707Z,1.60
2019-06-08T15:24:57.903Z,1.47
2019-06-08T15:27:26.564Z,1.30
2019-06-08T15:29:54.927Z,1.60
2019-06-08T15:32:22.967Z,1.20
2019-06-08T15:34:51.103Z,1.30
2019-06-08T15:37:18.781Z,1.30
2019-06-08T15:39:48.639Z,1.40
2019-06-08T15:42:18.025Z,1.40
2019-06-08T15:44:47.825Z,1.60
2019-06-08T15:47:17.685Z,1.13
2019-06-08T15:49:44.947Z,1.40
2019-06-08T15:52:12.712Z,1.77
2019-06-08T15:54:41.053Z,1.47
2019-06-08T15:57:08.905Z,1.57
2019-06-08T15:59:41.432Z,1.23
2019-06-08T16:02:08.471Z,1.57
2019-06-08T16:04:36.159Z,1.30
2019-06-08T16:07:04.553Z,1.40
2019-06-08T16:09:32.575Z,1.43
2019-06-08T16:12:00.356Z,1.27
2019-06-08T16:14:28.835Z,1.30
2019-06-08T16:16:56.657Z,1.50
2019-06-08T16:19:25.355Z,1.30
2019-06-08T16:21:53.138Z,1.40
2019-06-08T16:24:22.700Z,1.33
2019-06-08T16:26:53.557Z,1.20
2019-06-08T16:29:20.229Z,1.00
2019-06-08T16:31:48.021Z,1.10
2019-06-08T16:34:15.730Z,1.10
2019-06-08T16:36:44.066Z,1.30
2019-06-08T16:39:11.821Z,1.30
2019-06-08T16:41:40.261Z,1.40
2019-06-08T16:44:08.341Z,1.43
2019-06-08T16:46:36.547Z,1.60
2019-06-08T16:49:04.529Z,2.67
2019-06-08T16:51:34.022Z,1.27
2019-06-08T16:54:01.809Z,1.73
2019-06-08T16:56:30.070Z,1.30
2019-06-08T16:58:57.925Z,1.37
2019-06-08T17:01:25.657Z,1.53
2019-06-08T17:03:53.441Z,1.80
2019-06-08T17:06:21.163Z,1.40
2019-06-08T17:08:48.938Z,1.20
2019-06-08T17:11:16.727Z,1.67
2019-06-08T17:13:44.485Z,1.10
2019-06-08T17:16:12.230Z,1.33
2019-06-08T17:18:40.398Z,1.43
2019-06-08T17:21:08.059Z,1.57
2019-06-08T17:23:36.540Z,1.33
2019-06-08T17:26:04.600Z,3.30
2019-06-08T17:28:33.218Z,1.60
2019-06-08T17:31:01.038Z,1.40
2019-06-08T17:33:28.818Z,1.40
2019-06-08T17:35:56.534Z,1.30
2019-06-08T17:38:24.315Z,1.30
2019-06-08T17:40:52.095Z,1.37
2019-06-08T17:43:19.805Z,1.27
2019-06-08T17:45:47.524Z,1.60
2019-06-08T17:48:15.237Z,1.60
2019-06-08T17:50:43.073Z,1.53
2019-06-08T17:53:10.767Z,1.57
2019-06-08T17:55:39.463Z,1.43
2019-06-08T17:58:07.273Z,1.63
2019-06-08T18:00:35.382Z,1.83
2019-06-08T18:03:03.055Z,1.20
2019-06-08T18:05:30.849Z,1.37
2019-06-08T18:07:58.530Z,1.53
2019-06-08T18:10:27.755Z,1.57
2019-06-08T18:12:58.484Z,2.00
2019-06-08T18:15:25.258Z,1.70
2019-06-08T18:17:52.994Z,1.80
2019-06-08T18:20:20.950Z,1.80
2019-06-08T18:22:49.451Z,1.80
2019-06-08T18:25:17.757Z,2.13
2019-06-08T18:28:02.644Z,2.03
2019-06-08T18:30:18.478Z,1.73
2019-06-08T18:32:46.310Z,1.73
2019-06-08T18:35:14.710Z,1.47
2019-06-08T18:37:42.913Z,1.67
2019-06-08T18:40:11.913Z,1.70
2019-06-08T18:42:41.513Z,1.67
2019-06-08T18:45:11.113Z,4.30
2019-06-08T18:47:40.319Z,4.60
2019-06-08T18:50:09.061Z,5.07
2019-06-08T18:52:40.579Z,5.03
2019-06-08T18:55:08.315Z,5.63
2019-06-08T18:57:38.121Z,4.70
2019-06-08T19:00:09.238Z,4.20
2019-06-08T19:02:38.305Z,3.83
2019-06-08T19:05:04.873Z,2.37
2019-06-08T19:07:32.651Z,3.63
2019-06-08T19:10:00.530Z,3.37
2019-06-08T19:12:29.360Z,2.40
2019-06-08T19:14:58.565Z,3.33
2019-06-08T19:17:28.429Z,3.83
2019-06-08T19:19:58.000Z,2.83
2019-06-08T19:22:29.958Z,2.97
2019-06-08T19:24:55.177Z,2.60
2019-06-08T19:27:22.970Z,2.73
2019-06-08T19:29:51.677Z,2.00
2019-06-08T19:32:19.819Z,2.20
2019-06-08T19:34:52.834Z,2.30
2019-06-08T19:37:17.359Z,2.30
2019-06-08T19:39:46.477Z,2.03
2019-06-08T19:42:14.689Z,2.07
2019-06-08T19:44:50.724Z,2.13
2019-06-08T19:47:12.008Z,2.67
2019-06-08T19:49:40.369Z,4.37
2019-06-08T19:52:09.033Z,2.70
2019-06-08T19:54:38.293Z,2.37
2019-06-08T19:57:07.775Z,2.50
2019-06-08T19:59:38.094Z,2.23
2019-06-08T20:02:05.148Z,2.47
2019-06-08T20:04:32.856Z,2.10
2019-06-08T20:07:00.769Z,1.80
2019-06-08T20:09:28.602Z,2.30
2019-06-08T20:11:59.816Z,1.80
2019-06-08T20:14:25.905Z,1.53
2019-06-08T20:16:53.613Z,1.83
2019-06-08T20:19:21.649Z,1.70
2019-06-08T20:21:51.454Z,2.10
2019-06-08T20:24:18.964Z,1.97
2019-06-08T20:26:49.017Z,1.80
2019-06-08T20:29:16.605Z,2.30
2019-06-08T20:31:45.479Z,1.97
2019-06-08T20:34:13.870Z,2.07
2019-06-08T20:36:42.503Z,2.10
2019-06-08T20:39:10.213Z,2.70
2019-06-08T20:41:38.522Z,2.77
2019-06-08T20:44:08.292Z,2.83
2019-06-08T20:46:37.640Z,2.60
2019-06-08T20:49:05.293Z,2.50
2019-06-08T20:51:33.042Z,2.97
2019-06-08T20:54:00.775Z,2.47
2019-06-08T20:56:28.481Z,2.70
2019-06-08T20:58:57.414Z,2.30
2019-06-08T21:01:25.205Z,2.73
2019-06-08T21:03:54.157Z,3.03
2019-06-08T21:06:21.913Z,2.50
2019-06-08T21:08:51.508Z,2.90
2019-06-08T21:11:19.180Z,3.03
2019-06-08T21:13:49.624Z,2.47
2019-06-08T21:16:18.194Z,2.43
2019-06-08T21:18:46.819Z,2.17
2019-06-08T21:21:14.794Z,2.53
2019-06-08T21:23:42.509Z,2.60
2019-06-08T21:26:10.220Z,2.50
2019-06-08T21:28:38.564Z,3.23
2019-06-08T21:31:08.319Z,2.70
2019-06-08T21:33:37.985Z,2.30
2019-06-08T21:36:08.624Z,3.10
2019-06-08T21:38:37.535Z,2.57
2019-06-08T21:41:04.797Z,1.70
2019-06-08T21:43:32.502Z,1.87
2019-06-08T21:46:01.088Z,2.03
2019-06-08T21:48:28.962Z,2.00
2019-06-08T21:51:01.035Z,1.67
2019-06-08T21:53:27.540Z,2.10
2019-06-08T21:55:56.274Z,3.07
2019-06-08T21:58:24.071Z,2.40
2019-06-08T22:00:52.663Z,3.07
2019-06-08T22:03:20.734Z,3.30
2019-06-08T22:05:49.767Z,3.17
2019-06-08T22:08:17.617Z,3.93
2019-06-08T22:10:47.161Z,3.27
2019-06-08T22:13:17.289Z,2.70
2019-06-08T22:15:44.511Z,2.10
2019-06-08T22:18:12.240Z,2.90
2019-06-08T22:20:40.013Z,2.90
2019-06-08T22:23:07.772Z,2.70
2019-06-08T22:25:35.525Z,2.40
2019-06-08T22:28:03.988Z,1.90
2019-06-08T22:30:39.144Z,2.73
2019-06-08T22:33:01.305Z,2.40
2019-06-08T22:35:29.117Z,2.80
2019-06-08T22:37:58.023Z,2.50
2019-06-08T22:40:28.111Z,2.80
2019-06-08T22:42:57.743Z,2.40
2019-06-08T22:45:25.549Z,2.57
2019-06-08T22:47:54.451Z,2.30
2019-06-08T22:50:22.306Z,2.40
2019-06-08T22:52:49.957Z,2.17
2019-06-08T22:55:19.128Z,2.80
2019-06-08T22:57:47.950Z,2.60
2019-06-08T23:00:18.132Z,2.40
2019-06-08T23:02:45.533Z,2.20
2019-06-08T23:05:14.028Z,2.67
2019-06-08T23:07:41.881Z,2.70
2019-06-08T23:10:09.588Z,2.53
2019-06-08T23:12:38.187Z,3.30
2019-06-08T23:15:07.798Z,2.67
2019-06-08T23:17:38.600Z,3.00
2019-06-08T23:20:08.376Z,2.30
2019-06-08T23:22:38.180Z,2.97
2019-06-08T23:25:08.873Z,2.00
2019-06-08T23:27:34.830Z,2.60
2019-06-08T23:30:03.808Z,2.30
2019-06-08T23:32:32.340Z,2.80
2019-06-08T23:35:00.716Z,2.70
2019-06-08T23:37:28.498Z,2.43
2019-06-08T23:39:57.954Z,2.83
2019-06-08T23:42:27.316Z,2.20
2019-06-08T23:44:57.986Z,2.43
2019-06-08T23:47:27.363Z,2.67
2019-06-08T23:49:54.940Z,2.47
2019-06-08T23:52:22.753Z,2.43
2019-06-08T23:54:50.441Z,2.40
2019-06-08T23:57:18.175Z,2.63
2019-06-08T23:59:47.807Z,2.70
